sensor_id;sensor_type;location;lat;lon;timestamp;pressure;altitude;pressure_sealevel;temperature;humidity
78411;BME280;67706;51.074;-1.796;2023-04-25T00:02:00;101111.03;;;5.51;82.46
78411;BME280;67706;51.074;-1.796;2023-04-25T00:04:27;101112.69;;;5.44;82.74
78411;BME280;67706;51.074;-1.796;2023-04-25T00:06:55;101117.75;;;5.39;82.98
78411;BME280;67706;51.074;-1.796;2023-04-25T00:09:24;101113.84;;;5.41;82.77
78411;BME280;67706;51.074;-1.796;2023-04-25T00:11:51;101111.06;;;5.33;83.67
78411;BME280;67706;51.074;-1.796;2023-04-25T00:14:17;101109.47;;;5.23;83.45
78411;BME280;67706;51.074;-1.796;2023-04-25T00:16:44;101107.53;;;5.15;83.50
78411;BME280;67706;51.074;-1.796;2023-04-25T00:19:11;101117.31;;;5.08;83.35
78411;BME280;67706;51.074;-1.796;2023-04-25T00:21:38;101115.91;;;5.04;83.52
78411;BME280;67706;51.074;-1.796;2023-04-25T00:24:06;101114.19;;;5.03;83.66
78411;BME280;67706;51.074;-1.796;2023-04-25T00:26:35;101119.78;;;5.02;83.41
78411;BME280;67706;51.074;-1.796;2023-04-25T00:29:02;101122.22;;;5.05;83.08
78411;BME280;67706;51.074;-1.796;2023-04-25T00:31:28;101121.13;;;4.98;82.76
78411;BME280;67706;51.074;-1.796;2023-04-25T00:33:55;101128.13;;;5.00;82.22
78411;BME280;67706;51.074;-1.796;2023-04-25T00:36:22;101133.06;;;4.87;82.30
78411;BME280;67706;51.074;-1.796;2023-04-25T00:38:49;101130.66;;;4.84;83.01
78411;BME280;67706;51.074;-1.796;2023-04-25T00:41:15;101120.09;;;4.81;83.28
78411;BME280;67706;51.074;-1.796;2023-04-25T00:43:44;101121.66;;;4.83;82.94
78411;BME280;67706;51.074;-1.796;2023-04-25T00:46:12;101123.13;;;4.78;82.42
78411;BME280;67706;51.074;-1.796;2023-04-25T00:48:38;101132.75;;;4.72;82.41
78411;BME280;67706;51.074;-1.796;2023-04-25T00:51:05;101134.22;;;4.67;82.26
78411;BME280;67706;51.074;-1.796;2023-04-25T00:53:32;101136.16;;;4.74;81.61
78411;BME280;67706;51.074;-1.796;2023-04-25T00:55:59;101131.09;;;4.62;82.29
78411;BME280;67706;51.074;-1.796;2023-04-25T00:58:26;101136.97;;;4.57;83.08
78411;BME280;67706;51.074;-1.796;2023-04-25T01:00:55;101144.41;;;4.65;83.00
78411;BME280;67706;51.074;-1.796;2023-04-25T01:03:22;101148.56;;;4.59;83.13
78411;BME280;67706;51.074;-1.796;2023-04-25T01:05:50;101159.41;;;4.59;83.65
78411;BME280;67706;51.074;-1.796;2023-04-25T01:08:18;101159.38;;;4.69;82.76
78411;BME280;67706;51.074;-1.796;2023-04-25T01:10:44;101165.88;;;4.58;83.05
78411;BME280;67706;51.074;-1.796;2023-04-25T01:13:11;101166.06;;;4.47;82.91
78411;BME280;67706;51.074;-1.796;2023-04-25T01:15:38;101176.03;;;4.56;82.68
78411;BME280;67706;51.074;-1.796;2023-04-25T01:18:06;101187.47;;;4.50;83.12
78411;BME280;67706;51.074;-1.796;2023-04-25T01:20:33;101198.31;;;4.33;83.72
78411;BME280;67706;51.074;-1.796;2023-04-25T01:23:02;101191.03;;;4.24;84.51
78411;BME280;67706;51.074;-1.796;2023-04-25T01:25:29;101196.53;;;4.14;85.19
78411;BME280;67706;51.074;-1.796;2023-04-25T01:27:56;101193.38;;;4.09;85.10
78411;BME280;67706;51.074;-1.796;2023-04-25T01:30:24;101192.66;;;4.07;85.66
78411;BME280;67706;51.074;-1.796;2023-04-25T01:32:52;101187.25;;;4.07;85.34
78411;BME280;67706;51.074;-1.796;2023-04-25T01:35:20;101185.41;;;3.98;85.70
78411;BME280;67706;51.074;-1.796;2023-04-25T01:37:49;101188.00;;;3.99;85.69
78411;BME280;67706;51.074;-1.796;2023-04-25T01:40:18;101183.72;;;3.97;85.85
78411;BME280;67706;51.074;-1.796;2023-04-25T01:42:45;101183.72;;;3.97;86.68
78411;BME280;67706;51.074;-1.796;2023-04-25T01:45:12;101193.44;;;3.90;86.10
78411;BME280;67706;51.074;-1.796;2023-04-25T01:47:39;101181.97;;;3.96;85.49
78411;BME280;67706;51.074;-1.796;2023-04-25T01:50:09;101186.41;;;3.97;84.52
78411;BME280;67706;51.074;-1.796;2023-04-25T01:52:36;101177.69;;;4.03;84.18
78411;BME280;67706;51.074;-1.796;2023-04-25T01:55:04;101182.69;;;4.08;83.88
78411;BME280;67706;51.074;-1.796;2023-04-25T01:57:32;101183.81;;;4.05;83.04
78411;BME280;67706;51.074;-1.796;2023-04-25T02:00:01;101184.25;;;4.00;83.27
78411;BME280;67706;51.074;-1.796;2023-04-25T02:02:28;101182.84;;;4.06;82.50
78411;BME280;67706;51.074;-1.796;2023-04-25T02:04:55;101183.81;;;4.05;82.25
78411;BME280;67706;51.074;-1.796;2023-04-25T02:07:22;101175.84;;;4.03;83.22
78411;BME280;67706;51.074;-1.796;2023-04-25T02:09:49;101181.41;;;4.02;82.87
78411;BME280;67706;51.074;-1.796;2023-04-25T02:12:15;101186.53;;;4.05;81.85
78411;BME280;67706;51.074;-1.796;2023-04-25T02:14:43;101186.38;;;4.07;82.10
78411;BME280;67706;51.074;-1.796;2023-04-25T02:17:10;101189.38;;;4.13;83.04
78411;BME280;67706;51.074;-1.796;2023-04-25T02:19:37;101196.19;;;4.17;82.27
78411;BME280;67706;51.074;-1.796;2023-04-25T02:22:04;101200.22;;;4.13;83.06
78411;BME280;67706;51.074;-1.796;2023-04-25T02:24:31;101205.53;;;4.05;83.63
78411;BME280;67706;51.074;-1.796;2023-04-25T02:26:59;101202.44;;;4.00;83.09
78411;BME280;67706;51.074;-1.796;2023-04-25T02:29:25;101204.72;;;3.95;83.24
78411;BME280;67706;51.074;-1.796;2023-04-25T02:31:54;101211.13;;;3.94;83.69
78411;BME280;67706;51.074;-1.796;2023-04-25T02:34:21;101211.16;;;3.84;83.89
78411;BME280;67706;51.074;-1.796;2023-04-25T02:36:48;101209.19;;;3.77;84.30
78411;BME280;67706;51.074;-1.796;2023-04-25T02:39:14;101215.59;;;3.76;84.46
78411;BME280;67706;51.074;-1.796;2023-04-25T02:41:41;101212.44;;;3.71;85.15
78411;BME280;67706;51.074;-1.796;2023-04-25T02:44:08;101210.75;;;3.60;85.29
78411;BME280;67706;51.074;-1.796;2023-04-25T02:46:34;101202.88;;;3.67;84.91
78411;BME280;67706;51.074;-1.796;2023-04-25T02:49:02;101209.91;;;3.60;85.02
78411;BME280;67706;51.074;-1.796;2023-04-25T02:51:29;101217.63;;;3.64;84.84
78411;BME280;67706;51.074;-1.796;2023-04-25T02:53:56;101220.78;;;3.60;85.32
78411;BME280;67706;51.074;-1.796;2023-04-25T02:56:22;101226.91;;;3.62;85.23
78411;BME280;67706;51.074;-1.796;2023-04-25T02:58:52;101221.47;;;3.52;85.31
78411;BME280;67706;51.074;-1.796;2023-04-25T03:01:19;101226.75;;;3.35;86.16
78411;BME280;67706;51.074;-1.796;2023-04-25T03:03:46;101230.75;;;3.40;85.95
78411;BME280;67706;51.074;-1.796;2023-04-25T03:06:14;101237.31;;;3.47;85.98
78411;BME280;67706;51.074;-1.796;2023-04-25T03:08:41;101237.19;;;3.39;86.14
78411;BME280;67706;51.074;-1.796;2023-04-25T03:11:08;101233.75;;;3.37;85.58
78411;BME280;67706;51.074;-1.796;2023-04-25T03:13:34;101236.19;;;3.40;85.09
78411;BME280;67706;51.074;-1.796;2023-04-25T03:16:01;101239.88;;;3.30;85.36
78411;BME280;67706;51.074;-1.796;2023-04-25T03:18:27;101247.72;;;3.23;85.63
78411;BME280;67706;51.074;-1.796;2023-04-25T03:20:54;101247.31;;;3.28;85.96
78411;BME280;67706;51.074;-1.796;2023-04-25T03:23:22;101246.16;;;3.30;85.70
78411;BME280;67706;51.074;-1.796;2023-04-25T03:25:49;101242.88;;;3.27;85.16
78411;BME280;67706;51.074;-1.796;2023-04-25T03:28:16;101244.84;;;3.15;85.66
78411;BME280;67706;51.074;-1.796;2023-04-25T03:30:42;101246.56;;;3.06;86.56
78411;BME280;67706;51.074;-1.796;2023-04-25T03:33:09;101250.28;;;3.05;85.90
78411;BME280;67706;51.074;-1.796;2023-04-25T03:35:35;101251.41;;;3.03;86.47
78411;BME280;67706;51.074;-1.796;2023-04-25T03:38:02;101257.38;;;3.06;85.85
78411;BME280;67706;51.074;-1.796;2023-04-25T03:40:30;101257.13;;;3.09;85.83
78411;BME280;67706;51.074;-1.796;2023-04-25T03:42:57;101261.28;;;3.13;86.10
78411;BME280;67706;51.074;-1.796;2023-04-25T03:45:23;101269.41;;;3.13;85.80
78411;BME280;67706;51.074;-1.796;2023-04-25T03:47:50;101268.94;;;3.08;86.14
78411;BME280;67706;51.074;-1.796;2023-04-25T03:50:17;101273.09;;;3.12;85.75
78411;BME280;67706;51.074;-1.796;2023-04-25T03:52:43;101271.66;;;3.08;85.55
78411;BME280;67706;51.074;-1.796;2023-04-25T03:55:10;101272.66;;;3.07;85.44
78411;BME280;67706;51.074;-1.796;2023-04-25T03:57:38;101274.97;;;3.12;85.70
78411;BME280;67706;51.074;-1.796;2023-04-25T04:00:06;101279.38;;;3.03;85.28
78411;BME280;67706;51.074;-1.796;2023-04-25T04:02:33;101282.34;;;3.00;85.88
78411;BME280;67706;51.074;-1.796;2023-04-25T04:05:01;101283.94;;;3.03;85.64
78411;BME280;67706;51.074;-1.796;2023-04-25T04:07:28;101274.34;;;2.99;85.06
78411;BME280;67706;51.074;-1.796;2023-04-25T04:09:55;101290.22;;;3.03;85.02
78411;BME280;67706;51.074;-1.796;2023-04-25T04:12:21;101296.19;;;3.07;85.33
78411;BME280;67706;51.074;-1.796;2023-04-25T04:14:49;101293.34;;;3.08;85.24
78411;BME280;67706;51.074;-1.796;2023-04-25T04:17:16;101288.38;;;3.13;84.75
78411;BME280;67706;51.074;-1.796;2023-04-25T04:19:43;101292.22;;;3.11;85.52
78411;BME280;67706;51.074;-1.796;2023-04-25T04:22:09;101295.88;;;3.00;85.57
78411;BME280;67706;51.074;-1.796;2023-04-25T04:24:36;101294.19;;;2.99;85.48
78411;BME280;67706;51.074;-1.796;2023-04-25T04:27:02;101303.00;;;2.92;85.35
78411;BME280;67706;51.074;-1.796;2023-04-25T04:29:29;101304.66;;;2.83;85.07
78411;BME280;67706;51.074;-1.796;2023-04-25T04:31:57;101306.34;;;2.75;85.35
78411;BME280;67706;51.074;-1.796;2023-04-25T04:34:26;101302.09;;;2.72;85.94
78411;BME280;67706;51.074;-1.796;2023-04-25T04:36:53;101302.75;;;2.65;86.20
78411;BME280;67706;51.074;-1.796;2023-04-25T04:39:20;101303.03;;;2.62;86.21
78411;BME280;67706;51.074;-1.796;2023-04-25T04:41:47;101305.44;;;2.65;85.96
78411;BME280;67706;51.074;-1.796;2023-04-25T04:44:14;101308.56;;;2.60;85.95
78411;BME280;67706;51.074;-1.796;2023-04-25T04:46:40;101313.41;;;2.57;85.87
78411;BME280;67706;51.074;-1.796;2023-04-25T04:49:09;101313.72;;;2.63;85.55
78411;BME280;67706;51.074;-1.796;2023-04-25T04:51:36;101318.84;;;2.66;85.90
78411;BME280;67706;51.074;-1.796;2023-04-25T04:54:03;101320.78;;;2.45;86.40
78411;BME280;67706;51.074;-1.796;2023-04-25T04:56:30;101319.28;;;2.41;86.46
78411;BME280;67706;51.074;-1.796;2023-04-25T04:58:57;101322.94;;;2.30;86.78
78411;BME280;67706;51.074;-1.796;2023-04-25T05:01:24;101331.91;;;2.31;85.73
78411;BME280;67706;51.074;-1.796;2023-04-25T05:03:51;101340.31;;;2.28;85.25
78411;BME280;67706;51.074;-1.796;2023-04-25T05:06:20;101344.00;;;2.27;84.99
78411;BME280;67706;51.074;-1.796;2023-04-25T05:08:46;101351.00;;;2.29;84.77
78411;BME280;67706;51.074;-1.796;2023-04-25T05:11:13;101360.25;;;2.27;85.33
78411;BME280;67706;51.074;-1.796;2023-04-25T05:13:39;101356.56;;;2.28;84.43
78411;BME280;67706;51.074;-1.796;2023-04-25T05:16:06;101360.81;;;2.30;83.04
78411;BME280;67706;51.074;-1.796;2023-04-25T05:18:33;101370.00;;;2.39;82.48
78411;BME280;67706;51.074;-1.796;2023-04-25T05:21:00;101362.09;;;2.47;82.42
78411;BME280;67706;51.074;-1.796;2023-04-25T05:23:28;101367.53;;;2.47;82.08
78411;BME280;67706;51.074;-1.796;2023-04-25T05:25:55;101379.91;;;2.50;82.17
78411;BME280;67706;51.074;-1.796;2023-04-25T05:28:22;101390.31;;;2.45;82.69
78411;BME280;67706;51.074;-1.796;2023-04-25T05:30:49;101385.47;;;2.48;81.89
78411;BME280;67706;51.074;-1.796;2023-04-25T05:33:16;101389.75;;;2.51;82.82
78411;BME280;67706;51.074;-1.796;2023-04-25T05:35:43;101397.22;;;2.58;83.33
78411;BME280;67706;51.074;-1.796;2023-04-25T05:38:10;101395.63;;;2.56;83.19
78411;BME280;67706;51.074;-1.796;2023-04-25T05:40:37;101395.44;;;2.48;82.77
78411;BME280;67706;51.074;-1.796;2023-04-25T05:43:04;101387.28;;;2.68;82.71
78411;BME280;67706;51.074;-1.796;2023-04-25T05:45:31;101389.81;;;2.60;82.08
78411;BME280;67706;51.074;-1.796;2023-04-25T05:47:57;101391.16;;;2.66;83.23
78411;BME280;67706;51.074;-1.796;2023-04-25T05:50:24;101390.53;;;2.62;82.72
78411;BME280;67706;51.074;-1.796;2023-04-25T05:52:51;101393.72;;;2.67;83.27
78411;BME280;67706;51.074;-1.796;2023-04-25T05:55:18;101383.78;;;2.77;82.55
78411;BME280;67706;51.074;-1.796;2023-04-25T05:57:46;101387.38;;;2.87;80.75
78411;BME280;67706;51.074;-1.796;2023-04-25T06:00:13;101400.03;;;2.77;80.80
78411;BME280;67706;51.074;-1.796;2023-04-25T06:02:41;101396.88;;;3.02;80.38
78411;BME280;67706;51.074;-1.796;2023-04-25T06:05:08;101392.25;;;2.93;80.03
78411;BME280;67706;51.074;-1.796;2023-04-25T06:07:35;101392.22;;;2.84;79.78
78411;BME280;67706;51.074;-1.796;2023-04-25T06:10:02;101404.84;;;2.94;80.21
78411;BME280;67706;51.074;-1.796;2023-04-25T06:12:31;101399.66;;;2.91;80.03
78411;BME280;67706;51.074;-1.796;2023-04-25T06:14:59;101404.88;;;3.04;79.75
78411;BME280;67706;51.074;-1.796;2023-04-25T06:17:26;101409.78;;;3.10;79.41
78411;BME280;67706;51.074;-1.796;2023-04-25T06:19:52;101408.91;;;3.09;78.32
78411;BME280;67706;51.074;-1.796;2023-04-25T06:22:19;101407.25;;;3.28;79.44
78411;BME280;67706;51.074;-1.796;2023-04-25T06:24:46;101406.06;;;3.20;79.51
78411;BME280;67706;51.074;-1.796;2023-04-25T06:27:13;101414.53;;;3.27;79.49
78411;BME280;67706;51.074;-1.796;2023-04-25T06:29:40;101416.66;;;3.23;80.14
78411;BME280;67706;51.074;-1.796;2023-04-25T06:32:07;101421.28;;;3.33;79.81
78411;BME280;67706;51.074;-1.796;2023-04-25T06:34:34;101429.28;;;3.44;78.71
78411;BME280;67706;51.074;-1.796;2023-04-25T06:37:01;101434.34;;;3.58;79.27
78411;BME280;67706;51.074;-1.796;2023-04-25T06:39:27;101431.34;;;3.61;77.92
78411;BME280;67706;51.074;-1.796;2023-04-25T06:41:54;101430.66;;;3.78;76.66
78411;BME280;67706;51.074;-1.796;2023-04-25T06:44:21;101432.66;;;3.85;77.40
78411;BME280;67706;51.074;-1.796;2023-04-25T06:46:48;101437.38;;;3.83;77.92
78411;BME280;67706;51.074;-1.796;2023-04-25T06:49:16;101427.53;;;3.92;77.20
78411;BME280;67706;51.074;-1.796;2023-04-25T06:51:43;101429.97;;;3.95;74.59
78411;BME280;67706;51.074;-1.796;2023-04-25T06:54:10;101433.56;;;4.05;74.38
78411;BME280;67706;51.074;-1.796;2023-04-25T06:56:37;101430.28;;;4.11;73.85
78411;BME280;67706;51.074;-1.796;2023-04-25T06:59:03;101422.72;;;4.15;74.24
78411;BME280;67706;51.074;-1.796;2023-04-25T07:01:30;101435.41;;;4.24;74.12
78411;BME280;67706;51.074;-1.796;2023-04-25T07:03:56;101433.31;;;4.27;74.39
78411;BME280;67706;51.074;-1.796;2023-04-25T07:06:25;101435.31;;;4.25;74.35
78411;BME280;67706;51.074;-1.796;2023-04-25T07:08:53;101436.28;;;4.43;73.22
78411;BME280;67706;51.074;-1.796;2023-04-25T07:11:20;101437.16;;;4.44;74.82
78411;BME280;67706;51.074;-1.796;2023-04-25T07:13:47;101440.56;;;4.55;73.67
78411;BME280;67706;51.074;-1.796;2023-04-25T07:16:14;101442.84;;;4.60;72.47
78411;BME280;67706;51.074;-1.796;2023-04-25T07:18:41;101443.69;;;4.70;72.65
78411;BME280;67706;51.074;-1.796;2023-04-25T07:21:07;101440.69;;;4.73;72.27
78411;BME280;67706;51.074;-1.796;2023-04-25T07:23:36;101446.41;;;4.70;72.06
78411;BME280;67706;51.074;-1.796;2023-04-25T07:26:02;101437.09;;;4.72;71.30
78411;BME280;67706;51.074;-1.796;2023-04-25T07:28:29;101443.38;;;4.82;71.69
78411;BME280;67706;51.074;-1.796;2023-04-25T07:30:56;101449.78;;;4.91;71.00
78411;BME280;67706;51.074;-1.796;2023-04-25T07:33:23;101441.09;;;4.88;71.76
78411;BME280;67706;51.074;-1.796;2023-04-25T07:35:50;101441.63;;;4.91;71.52
78411;BME280;67706;51.074;-1.796;2023-04-25T07:38:16;101440.47;;;5.03;70.13
78411;BME280;67706;51.074;-1.796;2023-04-25T07:40:44;101429.00;;;5.09;70.40
78411;BME280;67706;51.074;-1.796;2023-04-25T07:43:11;101436.09;;;5.20;69.97
78411;BME280;67706;51.074;-1.796;2023-04-25T07:45:41;101435.81;;;5.23;70.96
78411;BME280;67706;51.074;-1.796;2023-04-25T07:48:09;101428.63;;;5.31;67.92
78411;BME280;67706;51.074;-1.796;2023-04-25T07:50:35;101439.78;;;5.38;67.35
78411;BME280;67706;51.074;-1.796;2023-04-25T07:53:02;101449.94;;;5.36;65.99
78411;BME280;67706;51.074;-1.796;2023-04-25T07:55:29;101450.66;;;5.38;66.42
78411;BME280;67706;51.074;-1.796;2023-04-25T07:57:57;101445.16;;;5.47;66.50
78411;BME280;67706;51.074;-1.796;2023-04-25T08:00:24;101456.59;;;5.51;65.81
78411;BME280;67706;51.074;-1.796;2023-04-25T08:02:50;101450.41;;;5.58;65.15
78411;BME280;67706;51.074;-1.796;2023-04-25T08:05:17;101446.66;;;5.59;66.19
78411;BME280;67706;51.074;-1.796;2023-04-25T08:07:43;101448.94;;;5.64;66.38
78411;BME280;67706;51.074;-1.796;2023-04-25T08:10:10;101450.75;;;5.73;66.36
78411;BME280;67706;51.074;-1.796;2023-04-25T08:12:37;101453.88;;;5.88;66.48
78411;BME280;67706;51.074;-1.796;2023-04-25T08:15:05;101447.25;;;5.90;65.07
78411;BME280;67706;51.074;-1.796;2023-04-25T08:17:32;101453.75;;;5.80;64.49
78411;BME280;67706;51.074;-1.796;2023-04-25T08:19:59;101452.38;;;5.93;64.80
78411;BME280;67706;51.074;-1.796;2023-04-25T08:22:25;101449.75;;;6.01;64.27
78411;BME280;67706;51.074;-1.796;2023-04-25T08:24:52;101447.44;;;6.06;64.23
78411;BME280;67706;51.074;-1.796;2023-04-25T08:27:18;101448.78;;;6.20;63.62
78411;BME280;67706;51.074;-1.796;2023-04-25T08:29:46;101445.03;;;6.21;63.51
78411;BME280;67706;51.074;-1.796;2023-04-25T08:32:14;101426.44;;;6.34;63.58
78411;BME280;67706;51.074;-1.796;2023-04-25T08:34:40;101438.78;;;6.46;60.91
78411;BME280;67706;51.074;-1.796;2023-04-25T08:37:09;101449.09;;;6.34;60.63
78411;BME280;67706;51.074;-1.796;2023-04-25T08:39:36;101446.81;;;6.48;61.35
78411;BME280;67706;51.074;-1.796;2023-04-25T08:42:05;101446.81;;;6.48;60.43
78411;BME280;67706;51.074;-1.796;2023-04-25T08:44:33;101449.94;;;6.53;59.72
78411;BME280;67706;51.074;-1.796;2023-04-25T08:47:01;101453.06;;;6.58;59.65
78411;BME280;67706;51.074;-1.796;2023-04-25T08:49:30;101455.97;;;6.64;60.02
78411;BME280;67706;51.074;-1.796;2023-04-25T08:51:59;101458.63;;;6.74;57.92
78411;BME280;67706;51.074;-1.796;2023-04-25T08:54:27;101452.84;;;6.77;57.67
78411;BME280;67706;51.074;-1.796;2023-04-25T08:56:56;101445.34;;;6.96;57.34
78411;BME280;67706;51.074;-1.796;2023-04-25T08:59:24;101441.88;;;7.12;56.23
78411;BME280;67706;51.074;-1.796;2023-04-25T09:01:50;101440.56;;;6.98;56.55
78411;BME280;67706;51.074;-1.796;2023-04-25T09:04:17;101448.22;;;6.95;55.75
78411;BME280;67706;51.074;-1.796;2023-04-25T09:06:46;101441.19;;;7.10;56.64
78411;BME280;67706;51.074;-1.796;2023-04-25T09:09:13;101438.63;;;7.16;54.15
78411;BME280;67706;51.074;-1.796;2023-04-25T09:11:40;101445.91;;;7.08;53.95
78411;BME280;67706;51.074;-1.796;2023-04-25T09:14:13;101443.09;;;7.17;55.01
78411;BME280;67706;51.074;-1.796;2023-04-25T09:17:01;101441.31;;;7.34;55.10
78411;BME280;67706;51.074;-1.796;2023-04-25T09:19:30;101455.13;;;7.33;53.80
78411;BME280;67706;51.074;-1.796;2023-04-25T09:22:00;101435.63;;;7.28;53.92
78411;BME280;67706;51.074;-1.796;2023-04-25T09:24:35;101441.50;;;7.41;56.07
78411;BME280;67706;51.074;-1.796;2023-04-25T09:27:05;101440.03;;;7.54;54.31
78411;BME280;67706;51.074;-1.796;2023-04-25T09:29:33;101437.69;;;7.59;51.85
78411;BME280;67706;51.074;-1.796;2023-04-25T09:32:17;101433.28;;;7.66;52.37
78411;BME280;67706;51.074;-1.796;2023-04-25T09:34:46;101436.94;;;7.83;53.15
78411;BME280;67706;51.074;-1.796;2023-04-25T09:37:19;101426.50;;;7.86;51.64
78411;BME280;67706;51.074;-1.796;2023-04-25T09:39:47;101426.50;;;7.86;49.73
78411;BME280;67706;51.074;-1.796;2023-04-25T09:42:14;101429.94;;;7.88;49.90
78411;BME280;67706;51.074;-1.796;2023-04-25T09:44:42;101428.44;;;8.02;50.75
78411;BME280;67706;51.074;-1.796;2023-04-25T09:47:11;101433.06;;;8.01;50.88
78411;BME280;67706;51.074;-1.796;2023-04-25T09:49:39;101431.88;;;8.12;49.11
78411;BME280;67706;51.074;-1.796;2023-04-25T09:52:07;101437.00;;;8.15;49.05
78411;BME280;67706;51.074;-1.796;2023-04-25T09:54:36;101430.56;;;8.32;50.30
78411;BME280;67706;51.074;-1.796;2023-04-25T09:57:06;101428.66;;;8.25;46.68
78411;BME280;67706;51.074;-1.796;2023-04-25T09:59:38;101429.16;;;8.20;47.26
78411;BME280;67706;51.074;-1.796;2023-04-25T10:02:07;101422.84;;;8.20;47.14
78411;BME280;67706;51.074;-1.796;2023-04-25T10:04:35;101426.91;;;8.08;48.56
78411;BME280;67706;51.074;-1.796;2023-04-25T10:07:03;101424.84;;;8.01;48.12
78411;BME280;67706;51.074;-1.796;2023-04-25T10:09:32;101427.13;;;8.22;47.71
78411;BME280;67706;51.074;-1.796;2023-04-25T10:12:02;101431.25;;;8.34;46.39
78411;BME280;67706;51.074;-1.796;2023-04-25T10:14:29;101432.13;;;8.51;46.74
78411;BME280;67706;51.074;-1.796;2023-04-25T10:16:57;101437.25;;;8.62;46.76
78411;BME280;67706;51.074;-1.796;2023-04-25T10:19:25;101428.88;;;8.55;45.79
78411;BME280;67706;51.074;-1.796;2023-04-25T10:21:54;101433.66;;;8.61;45.95
78411;BME280;67706;51.074;-1.796;2023-04-25T10:24:22;101438.97;;;8.47;43.69
78411;BME280;67706;51.074;-1.796;2023-04-25T10:26:50;101455.03;;;8.58;43.79
78411;BME280;67706;51.074;-1.796;2023-04-25T10:29:23;101447.84;;;8.41;42.44
78411;BME280;67706;51.074;-1.796;2023-04-25T10:31:50;101437.94;;;8.48;43.62
78411;BME280;67706;51.074;-1.796;2023-04-25T10:34:17;101440.00;;;8.62;43.48
78411;BME280;67706;51.074;-1.796;2023-04-25T10:36:49;101435.38;;;8.70;43.81
78411;BME280;67706;51.074;-1.796;2023-04-25T10:39:22;101439.47;;;8.74;43.79
78411;BME280;67706;51.074;-1.796;2023-04-25T10:41:52;101442.22;;;8.82;42.05
78411;BME280;67706;51.074;-1.796;2023-04-25T10:44:19;101443.94;;;8.84;44.06
78411;BME280;67706;51.074;-1.796;2023-04-25T10:46:47;101424.25;;;8.80;44.50
78411;BME280;67706;51.074;-1.796;2023-04-25T10:49:29;101427.84;;;8.89;44.13
78411;BME280;67706;51.074;-1.796;2023-04-25T10:52:17;101428.00;;;9.03;43.73
78411;BME280;67706;51.074;-1.796;2023-04-25T10:54:48;101424.78;;;8.92;42.76
78411;BME280;67706;51.074;-1.796;2023-04-25T10:57:36;101433.97;;;9.15;44.01
78411;BME280;67706;51.074;-1.796;2023-04-25T11:00:09;101425.38;;;9.18;42.31
78411;BME280;67706;51.074;-1.796;2023-04-25T11:02:41;101432.56;;;9.27;41.58
78411;BME280;67706;51.074;-1.796;2023-04-25T11:05:08;101436.53;;;9.16;41.44
78411;BME280;67706;51.074;-1.796;2023-04-25T11:07:39;101431.38;;;9.29;42.13
78411;BME280;67706;51.074;-1.796;2023-04-25T11:10:10;101431.50;;;9.44;40.98
78411;BME280;67706;51.074;-1.796;2023-04-25T11:12:37;101433.41;;;9.35;42.18
78411;BME280;67706;51.074;-1.796;2023-04-25T11:15:05;101434.72;;;9.47;41.07
78411;BME280;67706;51.074;-1.796;2023-04-25T11:17:33;101445.38;;;9.42;40.76
78411;BME280;67706;51.074;-1.796;2023-04-25T11:20:01;101439.00;;;9.50;41.07
78411;BME280;67706;51.074;-1.796;2023-04-25T11:22:31;101447.41;;;9.48;39.78
78411;BME280;67706;51.074;-1.796;2023-04-25T11:25:04;101447.06;;;9.43;40.08
78411;BME280;67706;51.074;-1.796;2023-04-25T11:27:31;101439.25;;;9.16;39.25
78411;BME280;67706;51.074;-1.796;2023-04-25T11:29:58;101431.69;;;9.42;40.30
78411;BME280;67706;51.074;-1.796;2023-04-25T11:32:24;101427.16;;;9.57;40.96
78411;BME280;67706;51.074;-1.796;2023-04-25T11:34:52;101427.44;;;9.71;41.32
78411;BME280;67706;51.074;-1.796;2023-04-25T11:37:20;101423.28;;;9.83;40.94
78411;BME280;67706;51.074;-1.796;2023-04-25T11:39:47;101419.22;;;10.01;40.89
78411;BME280;67706;51.074;-1.796;2023-04-25T11:42:14;101416.34;;;10.03;39.79
78411;BME280;67706;51.074;-1.796;2023-04-25T11:44:41;101413.88;;;10.08;41.15
78411;BME280;67706;51.074;-1.796;2023-04-25T11:47:08;101409.00;;;9.95;39.36
78411;BME280;67706;51.074;-1.796;2023-04-25T11:49:35;101423.78;;;9.86;39.74
78411;BME280;67706;51.074;-1.796;2023-04-25T11:52:02;101426.69;;;9.85;40.95
78411;BME280;67706;51.074;-1.796;2023-04-25T11:54:30;101428.03;;;9.97;40.31
78411;BME280;67706;51.074;-1.796;2023-04-25T11:56:57;101423.56;;;9.96;40.62
78411;BME280;67706;51.074;-1.796;2023-04-25T11:59:25;101418.34;;;10.09;40.19
78411;BME280;67706;51.074;-1.796;2023-04-25T12:01:52;101428.09;;;10.19;38.94
78411;BME280;67706;51.074;-1.796;2023-04-25T12:04:21;101432.25;;;10.38;37.67
78411;BME280;67706;51.074;-1.796;2023-04-25T12:06:49;101427.22;;;10.42;37.63
78411;BME280;67706;51.074;-1.796;2023-04-25T12:09:18;101436.66;;;10.39;38.19
78411;BME280;67706;51.074;-1.796;2023-04-25T12:11:48;101437.66;;;10.23;38.18
78411;BME280;67706;51.074;-1.796;2023-04-25T12:14:22;101441.47;;;10.06;38.62
78411;BME280;67706;51.074;-1.796;2023-04-25T12:16:49;101437.00;;;9.75;38.97
78411;BME280;67706;51.074;-1.796;2023-04-25T12:19:17;101439.91;;;9.81;39.24
78411;BME280;67706;51.074;-1.796;2023-04-25T12:21:44;101442.75;;;9.96;38.47
78411;BME280;67706;51.074;-1.796;2023-04-25T12:24:12;101444.28;;;9.98;38.60
78411;BME280;67706;51.074;-1.796;2023-04-25T12:26:51;101451.00;;;9.88;38.36
78411;BME280;67706;51.074;-1.796;2023-04-25T12:29:19;101441.78;;;9.81;38.03
78411;BME280;67706;51.074;-1.796;2023-04-25T12:31:46;101435.56;;;9.95;39.31
78411;BME280;67706;51.074;-1.796;2023-04-25T12:34:13;101447.69;;;10.31;39.48
78411;BME280;67706;51.074;-1.796;2023-04-25T12:36:40;101455.09;;;10.53;38.99
78411;BME280;67706;51.074;-1.796;2023-04-25T12:39:07;101448.50;;;10.62;37.68
78411;BME280;67706;51.074;-1.796;2023-04-25T12:41:34;101457.94;;;10.37;38.36
78411;BME280;67706;51.074;-1.796;2023-04-25T12:44:02;101451.72;;;10.20;37.94
78411;BME280;67706;51.074;-1.796;2023-04-25T12:46:29;101446.75;;;10.16;38.00
78411;BME280;67706;51.074;-1.796;2023-04-25T12:48:55;101444.72;;;10.18;38.80
78411;BME280;67706;51.074;-1.796;2023-04-25T12:51:22;101451.31;;;10.31;38.31
78411;BME280;67706;51.074;-1.796;2023-04-25T12:53:50;101442.22;;;10.31;38.75